createdAt,value
2023-12-18T00:00:23.263Z,69.88
2023-12-18T00:02:50.905Z,69.94
2023-12-18T00:05:18.682Z,69.91
2023-12-18T00:07:46.409Z,69.93
2023-12-18T00:10:14.369Z,69.99
2023-12-18T00:12:42.046Z,70.13
2023-12-18T00:15:09.849Z,70.30
2023-12-18T00:17:37.614Z,70.55
2023-12-18T00:20:05.781Z,70.65
2023-12-18T00:22:33.513Z,70.89
2023-12-18T00:25:01.172Z,71.08
2023-12-18T00:27:28.810Z,71.41
2023-12-18T00:29:56.492Z,71.44
2023-12-18T00:32:24.051Z,71.75
2023-12-18T00:34:51.802Z,71.88
2023-12-18T00:37:19.468Z,72.21
2023-12-18T00:39:47.037Z,72.51
2023-12-18T00:42:14.629Z,72.71
2023-12-18T00:44:42.260Z,72.83
2023-12-18T00:47:09.914Z,73.10
2023-12-18T00:49:37.904Z,73.12
2023-12-18T00:52:05.640Z,73.21
2023-12-18T00:54:33.236Z,73.35
2023-12-18T00:57:00.902Z,73.24
2023-12-18T00:59:28.531Z,73.38
2023-12-18T01:01:56.085Z,73.53
2023-12-18T01:04:23.684Z,73.45
2023-12-18T01:06:51.325Z,73.62
2023-12-18T01:09:19.013Z,73.66
2023-12-18T01:11:46.526Z,73.49
2023-12-18T01:14:14.094Z,73.46
2023-12-18T01:16:41.452Z,73.56
2023-12-18T01:19:09.299Z,73.59
2023-12-18T01:21:37.027Z,73.61
2023-12-18T01:24:04.777Z,73.63
2023-12-18T01:26:32.502Z,73.50
2023-12-18T01:29:00.177Z,73.38
2023-12-18T01:31:27.852Z,73.23
2023-12-18T01:33:55.699Z,73.36
2023-12-18T01:36:23.646Z,73.36
2023-12-18T01:38:51.332Z,73.29
2023-12-18T01:41:18.985Z,73.21
2023-12-18T01:43:46.529Z,73.13
2023-12-18T01:46:14.095Z,72.87
2023-12-18T01:48:41.762Z,72.63
2023-12-18T01:51:09.973Z,72.22
2023-12-18T01:53:37.596Z,72.20
2023-12-18T01:56:05.263Z,72.04
2023-12-18T01:58:32.830Z,71.88
2023-12-18T02:01:00.570Z,71.77
2023-12-18T02:03:28.320Z,71.52
2023-12-18T02:05:56.110Z,71.41
2023-12-18T02:08:23.667Z,71.35
2023-12-18T02:10:51.118Z,71.27
2023-12-18T02:13:18.672Z,71.24
2023-12-18T02:15:46.584Z,71.15
2023-12-18T02:18:14.460Z,71.17
2023-12-18T02:20:42.278Z,71.14
2023-12-18T02:23:09.831Z,71.36
2023-12-18T02:25:37.409Z,71.47
2023-12-18T02:28:05.058Z,71.58
2023-12-18T02:30:32.731Z,71.72
2023-12-18T02:33:00.463Z,71.69
2023-12-18T02:35:28.489Z,71.74
2023-12-18T02:37:56.116Z,71.73
2023-12-18T02:40:23.672Z,71.95
2023-12-18T02:42:51.365Z,71.99
2023-12-18T02:45:19.089Z,72.22
2023-12-18T02:47:46.974Z,72.21
2023-12-18T02:50:14.732Z,72.45
2023-12-18T02:52:42.389Z,72.72
2023-12-18T02:55:09.944Z,72.77
2023-12-18T02:57:37.846Z,72.92
2023-12-18T03:00:05.631Z,73.09
2023-12-18T03:02:33.345Z,73.08
2023-12-18T03:05:00.948Z,73.31
2023-12-18T03:07:28.666Z,73.55
2023-12-18T03:09:56.237Z,73.76
2023-12-18T03:12:24.056Z,73.98
2023-12-18T03:14:51.755Z,74.22
2023-12-18T03:17:19.735Z,74.26
2023-12-18T03:19:47.371Z,74.57
2023-12-18T03:22:15.151Z,74.83
2023-12-18T03:24:42.786Z,74.97
2023-12-18T03:27:10.580Z,75.39
2023-12-18T03:29:38.187Z,75.64
2023-12-18T03:32:05.792Z,75.60
2023-12-18T03:34:33.541Z,75.88
2023-12-18T03:37:01.754Z,76.09
2023-12-18T03:39:29.314Z,76.14
2023-12-18T03:41:56.845Z,76.03
2023-12-18T03:44:24.402Z,76.13
2023-12-18T03:46:51.964Z,76.19
2023-12-18T03:49:19.805Z,76.05
2023-12-18T03:51:47.529Z,75.90
2023-12-18T03:54:15.278Z,75.76
2023-12-18T03:56:42.813Z,75.77
2023-12-18T03:59:10.684Z,75.76
2023-12-18T04:01:38.294Z,75.79
2023-12-18T04:04:06.069Z,76.05
2023-12-18T04:06:33.799Z,76.00
2023-12-18T04:09:01.452Z,76.06
2023-12-18T04:11:29.022Z,76.17
2023-12-18T04:13:56.655Z,76.29
2023-12-18T04:16:24.321Z,76.27
2023-12-18T04:18:52.025Z,76.55
2023-12-18T04:21:19.875Z,76.73
2023-12-18T04:23:47.601Z,77.20
2023-12-18T04:26:15.180Z,77.45
2023-12-18T04:28:42.833Z,77.39
2023-12-18T04:31:10.411Z,77.50
2023-12-18T04:33:38.326Z,77.68
2023-12-18T04:36:06.074Z,77.48
2023-12-18T04:38:33.784Z,77.23
2023-12-18T04:41:01.335Z,76.85
2023-12-18T04:43:28.905Z,76.45
2023-12-18T04:45:56.458Z,75.98
2023-12-18T04:48:24.180Z,75.49
2023-12-18T04:50:51.778Z,75.16
2023-12-18T04:53:19.338Z,74.84
2023-12-18T04:55:46.996Z,74.60
2023-12-18T04:58:14.582Z,74.31
2023-12-18T05:00:42.315Z,74.06
2023-12-18T05:03:10.216Z,73.75
2023-12-18T05:05:38.400Z,73.59
2023-12-18T05:08:05.922Z,73.52
2023-12-18T05:10:33.490Z,73.27
2023-12-18T05:13:01.062Z,73.15
2023-12-18T05:15:28.753Z,73.07
2023-12-18T05:17:56.384Z,72.87
2023-12-18T05:20:24.038Z,72.86
2023-12-18T05:22:51.704Z,72.81
2023-12-18T05:25:19.573Z,72.64
2023-12-18T05:27:47.170Z,72.47
2023-12-18T05:30:15.073Z,72.43
2023-12-18T05:32:43.188Z,72.30
2023-12-18T05:35:11.025Z,72.39
2023-12-18T05:37:38.685Z,72.27
2023-12-18T05:40:06.338Z,72.23
2023-12-18T05:42:33.990Z,72.24
2023-12-18T05:45:01.992Z,72.30
2023-12-18T05:47:29.675Z,72.48
2023-12-18T05:49:57.351Z,72.29
2023-12-18T05:52:25.068Z,72.47
2023-12-18T05:54:52.682Z,72.24
2023-12-18T05:57:20.579Z,72.21
2023-12-18T05:59:48.252Z,72.48
2023-12-18T06:02:15.916Z,72.41
2023-12-18T06:04:43.609Z,72.51
2023-12-18T06:07:11.792Z,72.32
2023-12-18T06:09:39.652Z,71.91
2023-12-18T06:12:07.419Z,71.68
2023-12-18T06:14:35.054Z,71.54
2023-12-18T06:17:02.708Z,71.23
2023-12-18T06:19:30.374Z,71.09
2023-12-18T06:21:58.119Z,71.09
2023-12-18T06:24:25.724Z,71.02
2023-12-18T06:26:53.752Z,71.07
2023-12-18T06:29:21.108Z,70.94
2023-12-18T06:31:48.824Z,70.73
2023-12-18T06:34:16.722Z,70.75
2023-12-18T06:36:44.454Z,70.63
2023-12-18T06:39:12.269Z,70.68
2023-12-18T06:41:39.931Z,70.64
2023-12-18T06:44:07.595Z,70.59
2023-12-18T06:46:35.160Z,70.67
2023-12-18T06:49:03.184Z,70.55
2023-12-18T06:51:30.892Z,70.57
2023-12-18T06:53:58.566Z,70.79
2023-12-18T06:56:26.105Z,70.71
2023-12-18T06:58:53.870Z,70.78
2023-12-18T07:01:21.534Z,70.81
2023-12-18T07:03:49.276Z,71.02
2023-12-18T07:06:16.974Z,70.72
2023-12-18T07:08:44.744Z,70.55
2023-12-18T07:11:12.281Z,70.49
2023-12-18T07:13:39.951Z,70.48
2023-12-18T07:16:07.529Z,70.28
2023-12-18T07:18:35.379Z,70.18
2023-12-18T07:21:03.232Z,70.07
2023-12-18T07:23:30.796Z,69.96
2023-12-18T07:25:58.346Z,69.74
2023-12-18T07:28:25.911Z,69.76
2023-12-18T07:30:53.324Z,69.66
2023-12-18T07:33:21.275Z,69.42
2023-12-18T07:35:48.898Z,67.12
2023-12-18T07:38:16.558Z,63.91
2023-12-18T07:40:44.117Z,60.24
2023-12-18T07:43:11.775Z,56.96
2023-12-18T07:45:39.376Z,53.96
2023-12-18T07:48:12.635Z,51.49
2023-12-18T07:50:40.424Z,47.72
2023-12-18T07:53:08.052Z,45.44
2023-12-18T07:55:36.023Z,44.42
2023-12-18T07:58:03.691Z,42.69
2023-12-18T08:00:31.270Z,40.88
2023-12-18T08:02:59.187Z,39.69
2023-12-18T08:05:26.956Z,38.30
2023-12-18T08:07:54.845Z,37.50
2023-12-18T08:10:22.404Z,37.18
2023-12-18T08:12:50.170Z,35.61
2023-12-18T08:15:17.855Z,35.08
2023-12-18T08:17:45.741Z,33.77
2023-12-18T08:20:13.457Z,32.88
2023-12-18T08:22:41.470Z,30.96
2023-12-18T08:25:09.192Z,30.80
2023-12-18T08:27:36.876Z,29.32
2023-12-18T08:30:04.597Z,29.24
2023-12-18T08:32:32.435Z,29.27
2023-12-18T08:35:00.353Z,28.82
2023-12-18T08:37:28.011Z,28.50
2023-12-18T08:39:55.703Z,28.49
2023-12-18T08:42:23.558Z,28.54
2023-12-18T08:44:51.302Z,29.67
2023-12-18T08:47:18.976Z,30.40
2023-12-18T08:49:46.528Z,31.07
2023-12-18T08:52:14.186Z,31.82
2023-12-18T08:54:41.876Z,31.66
2023-12-18T08:57:09.934Z,31.67
2023-12-18T08:59:37.478Z,32.05
2023-12-18T09:02:05.308Z,31.91
2023-12-18T09:04:33.148Z,32.53
2023-12-18T09:07:00.799Z,33.40
2023-12-18T09:09:28.437Z,34.35
2023-12-18T09:11:55.982Z,35.43
2023-12-18T09:14:23.563Z,35.78
2023-12-18T09:16:51.520Z,36.06
2023-12-18T09:19:19.252Z,35.76
2023-12-18T09:21:47.110Z,35.97
2023-12-18T09:24:14.837Z,35.77
2023-12-18T09:26:42.469Z,36.24
2023-12-18T09:29:10.214Z,35.71
2023-12-18T09:31:37.976Z,36.18
2023-12-18T09:34:06.147Z,36.12
2023-12-18T09:36:33.895Z,36.61
2023-12-18T09:39:02.002Z,37.61
2023-12-18T09:41:29.562Z,36.84
2023-12-18T09:43:57.230Z,36.25
2023-12-18T09:46:24.892Z,36.50
2023-12-18T09:48:52.640Z,36.35
2023-12-18T09:51:20.343Z,37.51
2023-12-18T09:53:47.978Z,37.70
2023-12-18T09:56:15.642Z,37.74
2023-12-18T09:58:43.197Z,37.07
2023-12-18T10:01:10.965Z,35.88
2023-12-18T10:03:38.695Z,35.07
2023-12-18T10:06:06.500Z,33.37
2023-12-18T10:08:34.049Z,31.83
2023-12-18T10:11:01.711Z,31.44
2023-12-18T10:13:29.269Z,31.50
2023-12-18T10:15:56.989Z,32.04
2023-12-18T10:18:24.896Z,32.53
2023-12-18T10:20:53.867Z,33.30
2023-12-18T10:23:21.448Z,34.06
2023-12-18T10:25:49.124Z,33.66
2023-12-18T10:28:16.770Z,32.88
2023-12-18T10:30:44.469Z,33.66
2023-12-18T10:33:12.617Z,34.29
2023-12-18T10:35:40.477Z,34.53
2023-12-18T10:38:08.043Z,35.55
2023-12-18T10:40:35.719Z,35.22
2023-12-18T10:43:03.764Z,34.30
2023-12-18T10:45:31.524Z,33.40
2023-12-18T10:47:59.429Z,31.66
2023-12-18T10:50:27.277Z,30.79
2023-12-18T10:52:54.826Z,30.71
2023-12-18T10:55:22.547Z,31.86
2023-12-18T10:57:50.258Z,32.14
2023-12-18T11:00:18.179Z,32.51
2023-12-18T11:02:45.893Z,33.06
2023-12-18T11:05:13.824Z,33.78
2023-12-18T11:07:41.949Z,34.45
2023-12-18T11:10:11.434Z,34.04
2023-12-18T11:12:40.344Z,33.99
2023-12-18T11:15:08.050Z,34.59
2023-12-18T11:17:35.901Z,34.44
2023-12-18T11:20:03.692Z,33.94
2023-12-18T11:22:31.478Z,33.48
2023-12-18T11:24:59.334Z,33.39
2023-12-18T11:27:26.926Z,32.45
2023-12-18T11:29:54.357Z,30.99
2023-12-18T11:32:21.909Z,28.37
2023-12-18T11:34:49.734Z,27.14
2023-12-18T11:37:17.551Z,27.08
2023-12-18T11:39:45.129Z,27.37
2023-12-18T11:42:13.302Z,27.86
2023-12-18T11:44:40.966Z,28.12
2023-12-18T11:47:08.594Z,27.46
2023-12-18T11:49:36.217Z,26.33
2023-12-18T11:52:03.924Z,24.89
2023-12-18T11:54:32.861Z,23.65
2023-12-18T11:57:00.574Z,23.42
2023-12-18T11:59:28.231Z,22.31
2023-12-18T12:01:55.789Z,21.42
2023-12-18T12:04:23.810Z,20.25
2023-12-18T12:06:51.480Z,19.78
2023-12-18T12:09:19.231Z,19.06
2023-12-18T12:11:46.846Z,18.50
2023-12-18T12:14:14.517Z,18.01
2023-12-18T12:16:41.898Z,17.76
2023-12-18T12:19:09.711Z,18.03
2023-12-18T12:21:45.223Z,18.59
2023-12-18T12:24:16.976Z,18.88
2023-12-18T12:26:44.818Z,18.37
2023-12-18T12:29:12.649Z,19.11
2023-12-18T12:31:40.535Z,21.03
2023-12-18T12:34:08.357Z,22.72
2023-12-18T12:36:36.113Z,23.86
2023-12-18T12:39:03.959Z,23.79
2023-12-18T12:41:33.432Z,24.00
2023-12-18T12:44:04.937Z,23.48
2023-12-18T12:46:36.008Z,23.03
2023-12-18T12:49:04.561Z,22.39
2023-12-18T12:51:34.279Z,21.63
2023-12-18T12:54:01.999Z,21.77
2023-12-18T12:56:29.651Z,22.97
2023-12-18T12:58:57.436Z,24.96
2023-12-18T13:01:25.191Z,26.80
2023-12-18T13:03:53.200Z,29.03
2023-12-18T13:06:21.554Z,31.02
2023-12-18T13:08:49.387Z,32.72
2023-12-18T13:11:17.055Z,34.17
2023-12-18T13:13:44.721Z,35.57
2023-12-18T13:16:12.261Z,36.77
2023-12-18T13:18:40.068Z,36.67
2023-12-18T13:21:07.803Z,35.87
2023-12-18T13:23:35.667Z,35.38
2023-12-18T13:26:03.656Z,35.08
2023-12-18T13:28:31.298Z,35.27
2023-12-18T13:30:58.744Z,35.01
2023-12-18T13:33:26.677Z,34.59
2023-12-18T13:35:55.524Z,34.41
2023-12-18T13:38:23.887Z,34.88
2023-12-18T13:40:51.446Z,35.51
2023-12-18T13:43:19.106Z,35.66
2023-12-18T13:45:46.860Z,35.54
2023-12-18T13:48:14.593Z,35.76
2023-12-18T13:50:42.700Z,36.22
2023-12-18T13:53:10.166Z,37.19
2023-12-18T13:55:37.724Z,37.53
2023-12-18T13:58:05.312Z,38.00
2023-12-18T14:00:33.010Z,38.85
2023-12-18T14:03:00.632Z,39.86
2023-12-18T14:05:28.192Z,40.57
2023-12-18T14:07:55.838Z,41.07
2023-12-18T14:10:23.517Z,41.49
2023-12-18T14:12:51.651Z,41.99
2023-12-18T14:15:19.388Z,42.02
2023-12-18T14:17:47.086Z,42.43
2023-12-18T14:20:14.779Z,42.92
2023-12-18T14:22:42.609Z,43.58
2023-12-18T14:25:10.539Z,44.20
2023-12-18T14:27:38.292Z,45.28
2023-12-18T14:30:06.145Z,46.25
2023-12-18T14:32:33.992Z,47.10
2023-12-18T14:35:01.873Z,48.21
2023-12-18T14:37:29.603Z,49.24
2023-12-18T14:39:57.431Z,50.20
2023-12-18T14:42:25.260Z,51.07
2023-12-18T14:44:52.813Z,51.94
2023-12-18T14:47:20.419Z,52.65
2023-12-18T14:49:48.125Z,53.49
2023-12-18T14:52:16.297Z,54.19
2023-12-18T14:54:43.870Z,54.95
2023-12-18T14:57:11.556Z,55.67
2023-12-18T14:59:39.170Z,56.25
2023-12-18T15:02:06.900Z,56.59
2023-12-18T15:04:34.710Z,56.94
2023-12-18T15:07:02.500Z,57.18
2023-12-18T15:09:30.293Z,57.75
2023-12-18T15:11:58.086Z,58.78
2023-12-18T15:14:25.973Z,58.58
2023-12-18T15:16:53.616Z,58.95
2023-12-18T15:19:21.340Z,59.15
2023-12-18T15:21:49.178Z,59.32
2023-12-18T15:24:16.844Z,59.36
2023-12-18T15:26:44.371Z,59.82
2023-12-18T15:29:11.950Z,60.07
2023-12-18T15:31:40.174Z,60.34
2023-12-18T15:34:08.163Z,60.56
2023-12-18T15:36:37.783Z,60.87
2023-12-18T15:39:05.441Z,61.17
2023-12-18T15:41:33.013Z,61.39
2023-12-18T15:44:00.560Z,61.23
2023-12-18T15:46:28.249Z,61.08
2023-12-18T15:48:55.962Z,61.11
2023-12-18T15:51:23.870Z,61.34
2023-12-18T15:53:51.829Z,61.51
2023-12-18T15:56:19.400Z,61.14
2023-12-18T15:58:46.967Z,60.53
2023-12-18T16:01:15.029Z,60.36
2023-12-18T16:03:43.012Z,60.63
2023-12-18T16:06:10.861Z,60.41
2023-12-18T16:08:38.405Z,60.52
2023-12-18T16:11:05.962Z,60.59
2023-12-18T16:13:33.625Z,60.08
2023-12-18T16:16:01.830Z,59.91
2023-12-18T16:18:29.782Z,59.80
2023-12-18T16:20:57.222Z,59.97
2023-12-18T16:23:24.998Z,60.13
2023-12-18T16:25:52.595Z,59.96
2023-12-18T16:28:20.312Z,60.34
2023-12-18T16:30:56.039Z,59.93
2023-12-18T16:33:25.431Z,59.92
2023-12-18T16:35:53.411Z,59.61
2023-12-18T16:38:21.506Z,59.42
2023-12-18T16:40:49.162Z,59.40
2023-12-18T16:43:16.831Z,59.46
2023-12-18T16:45:44.381Z,59.40
2023-12-18T16:48:12.008Z,59.65
2023-12-18T16:50:39.818Z,59.75
2023-12-18T16:53:07.503Z,59.96
2023-12-18T16:55:35.032Z,59.52
2023-12-18T16:58:02.706Z,59.86
2023-12-18T17:00:30.372Z,60.29
2023-12-18T17:02:58.019Z,60.33
2023-12-18T17:05:25.689Z,59.80
2023-12-18T17:07:53.575Z,59.80
2023-12-18T17:10:21.112Z,59.90
2023-12-18T17:12:48.786Z,59.76
2023-12-18T17:15:16.486Z,59.38
2023-12-18T17:17:44.206Z,58.95
2023-12-18T17:20:11.804Z,58.80
2023-12-18T17:22:39.743Z,58.84
2023-12-18T17:25:07.389Z,59.37
2023-12-18T17:27:35.194Z,59.28
2023-12-18T17:30:02.814Z,60.02
2023-12-18T17:32:30.550Z,60.06
2023-12-18T17:34:58.483Z,60.27
2023-12-18T17:37:26.295Z,60.86
2023-12-18T17:39:54.078Z,61.12
2023-12-18T17:42:22.169Z,61.57
2023-12-18T17:44:49.693Z,62.09
2023-12-18T17:47:17.370Z,62.14
2023-12-18T17:49:45.022Z,62.34
2023-12-18T17:52:12.694Z,62.56
2023-12-18T17:54:40.284Z,62.95
2023-12-18T17:57:07.903Z,63.11
2023-12-18T17:59:35.466Z,63.21
2023-12-18T18:02:03.126Z,63.31
2023-12-18T18:04:31.243Z,63.36
2023-12-18T18:06:59.001Z,63.58
2023-12-18T18:09:26.680Z,63.86
2023-12-18T18:11:54.276Z,63.85
2023-12-18T18:14:21.947Z,64.07
2023-12-18T18:16:49.505Z,64.15
2023-12-18T18:19:17.277Z,64.35
2023-12-18T18:21:44.960Z,64.40
2023-12-18T18:24:12.931Z,64.50
2023-12-18T18:26:40.555Z,64.30
2023-12-18T18:29:08.115Z,64.56
2023-12-18T18:31:35.849Z,64.74
2023-12-18T18:34:03.756Z,64.89
2023-12-18T18:36:31.536Z,64.99
2023-12-18T18:38:59.183Z,65.32
2023-12-18T18:41:27.034Z,65.53
2023-12-18T18:43:55.117Z,65.68
2023-12-18T18:46:22.674Z,65.82
2023-12-18T18:48:50.401Z,65.76
2023-12-18T18:51:18.231Z,65.66
2023-12-18T18:53:45.965Z,65.56
2023-12-18T18:56:13.526Z,65.51
2023-12-18T18:58:41.190Z,65.50
2023-12-18T19:01:08.880Z,65.56
2023-12-18T19:03:36.814Z,65.63
2023-12-18T19:06:04.783Z,65.79
2023-12-18T19:08:32.554Z,65.86
2023-12-18T19:10:59.998Z,66.05
2023-12-18T19:13:27.559Z,66.06
2023-12-18T19:15:55.480Z,66.01
2023-12-18T19:18:23.426Z,65.93
2023-12-18T19:20:51.062Z,65.96
2023-12-18T19:23:18.713Z,65.92
2023-12-18T19:25:46.278Z,65.90
2023-12-18T19:28:13.878Z,65.42
2023-12-18T19:30:41.572Z,64.94
2023-12-18T19:33:09.391Z,65.02
2023-12-18T19:35:37.118Z,65.20
2023-12-18T19:38:04.693Z,64.94
2023-12-18T19:40:32.243Z,64.76
2023-12-18T19:42:59.863Z,65.21
2023-12-18T19:45:27.596Z,65.39
2023-12-18T19:47:55.589Z,65.47
2023-12-18T19:50:23.982Z,65.81
2023-12-18T19:52:51.685Z,65.78
2023-12-18T19:55:19.238Z,65.93
2023-12-18T19:57:46.905Z,65.90
2023-12-18T20:00:14.567Z,66.15
2023-12-18T20:02:42.609Z,66.13
2023-12-18T20:05:10.501Z,66.03
2023-12-18T20:07:38.203Z,66.34
2023-12-18T20:10:05.952Z,66.30
2023-12-18T20:12:33.650Z,66.40
2023-12-18T20:15:01.540Z,66.43
2023-12-18T20:17:29.267Z,66.48
2023-12-18T20:19:56.932Z,66.81
2023-12-18T20:22:24.598Z,67.03
2023-12-18T20:24:52.456Z,67.16
2023-12-18T20:27:20.237Z,67.24
2023-12-18T20:29:47.932Z,67.35
2023-12-18T20:32:15.495Z,67.41
2023-12-18T20:34:43.251Z,67.67
2023-12-18T20:37:11.004Z,67.67
2023-12-18T20:39:38.829Z,67.74
2023-12-18T20:42:06.467Z,67.70
2023-12-18T20:44:34.009Z,67.53
2023-12-18T20:47:01.660Z,67.56
2023-12-18T20:49:29.409Z,67.53
2023-12-18T20:51:57.622Z,67.49
2023-12-18T20:54:25.390Z,67.43
2023-12-18T20:56:53.031Z,67.69
2023-12-18T20:59:20.605Z,68.03
2023-12-18T21:01:48.441Z,68.20
2023-12-18T21:04:16.273Z,68.28
2023-12-18T21:06:43.998Z,68.47
2023-12-18T21:09:11.643Z,68.49
2023-12-18T21:11:39.410Z,68.65
2023-12-18T21:14:07.431Z,68.79
2023-12-18T21:16:35.256Z,68.92
2023-12-18T21:19:03.009Z,69.03
2023-12-18T21:21:30.930Z,69.18
2023-12-18T21:23:58.643Z,69.40
2023-12-18T21:26:26.296Z,69.55
2023-12-18T21:28:53.869Z,69.44
2023-12-18T21:31:21.833Z,69.39
2023-12-18T21:33:49.854Z,69.28
2023-12-18T21:36:17.677Z,69.13
2023-12-18T21:38:45.217Z,68.90
2023-12-18T21:41:12.781Z,68.68
2023-12-18T21:43:40.364Z,68.53
2023-12-18T21:46:08.041Z,68.18
2023-12-18T21:48:35.820Z,68.05
2023-12-18T21:51:03.445Z,68.08
2023-12-18T21:53:31.106Z,67.90
2023-12-18T21:55:58.651Z,68.13
2023-12-18T21:58:26.658Z,68.00
2023-12-18T22:00:54.350Z,68.14
2023-12-18T22:03:22.233Z,68.52
2023-12-18T22:05:50.147Z,68.59
2023-12-18T22:08:17.883Z,68.53
2023-12-18T22:10:45.544Z,68.73
2023-12-18T22:13:13.125Z,68.96
2023-12-18T22:15:40.695Z,69.16
2023-12-18T22:18:08.487Z,69.34
2023-12-18T22:20:36.490Z,69.52
2023-12-18T22:23:04.069Z,69.98
2023-12-18T22:25:31.714Z,70.20
2023-12-18T22:27:59.390Z,70.39
2023-12-18T22:30:27.121Z,70.53
2023-12-18T22:32:54.965Z,70.73
2023-12-18T22:35:22.565Z,70.98
2023-12-18T22:37:50.134Z,71.02
2023-12-18T22:40:17.989Z,71.15
2023-12-18T22:42:45.839Z,71.12
2023-12-18T22:45:13.787Z,70.94
2023-12-18T22:47:41.414Z,70.77
2023-12-18T22:50:09.128Z,70.62
2023-12-18T22:52:36.815Z,70.51
2023-12-18T22:55:04.520Z,70.34
2023-12-18T22:57:32.155Z,70.20
2023-12-18T22:59:59.795Z,70.16
2023-12-18T23:02:27.355Z,70.12
2023-12-18T23:04:55.127Z,70.10
2023-12-18T23:07:22.783Z,70.09
2023-12-18T23:09:50.457Z,70.16
2023-12-18T23:12:18.110Z,70.44
2023-12-18T23:14:45.666Z,70.71
2023-12-18T23:17:13.225Z,70.83
2023-12-18T23:19:40.840Z,70.90
2023-12-18T23:22:08.692Z,71.04
2023-12-18T23:27:17.610Z,70.80
2023-12-18T23:29:45.148Z,70.56
2023-12-18T23:32:12.806Z,70.46
2023-12-18T23:34:40.552Z,70.54
2023-12-18T23:37:08.743Z,70.69
2023-12-18T23:39:36.419Z,70.85
2023-12-18T23:42:04.064Z,70.94
2023-12-18T23:44:31.646Z,71.14
2023-12-18T23:46:59.294Z,71.23
2023-12-18T23:49:26.936Z,71.48
2023-12-18T23:51:54.836Z,71.64
2023-12-18T23:54:22.641Z,71.94
2023-12-18T23:56:50.352Z,71.99
2023-12-18T23:59:18.318Z,71.83
